createdAt,value
2017-11-15T00:00:22.440Z,1018.16
2017-11-15T00:00:48.584Z,1018.17
2017-11-15T00:01:14.701Z,1018.17
2017-11-15T00:01:40.826Z,1018.17
2017-11-15T00:02:06.941Z,1018.17
2017-11-15T00:02:33.069Z,1018.15
2017-11-15T00:02:59.206Z,1018.16
2017-11-15T00:03:25.324Z,1018.21
2017-11-15T00:03:51.450Z,1018.13
2017-11-15T00:04:17.594Z,1018.12
2017-11-15T00:04:43.744Z,1018.14
2017-11-15T00:05:09.861Z,1018.17
2017-11-15T00:05:35.980Z,1018.16
2017-11-15T00:06:02.126Z,1018.14
2017-11-15T00:06:28.246Z,1018.13
2017-11-15T00:06:54.369Z,1018.1
2017-11-15T00:07:20.504Z,1018.07
2017-11-15T00:07:46.622Z,1018.11
2017-11-15T00:08:12.766Z,1018.12
2017-11-15T00:08:38.882Z,1018.11
2017-11-15T00:09:05.003Z,1018.09
2017-11-15T00:09:31.191Z,1018.12
2017-11-15T00:09:57.327Z,1018.14
2017-11-15T00:10:23.454Z,1018.13
2017-11-15T00:10:49.574Z,1018.13
2017-11-15T00:11:15.690Z,1018.15
2017-11-15T00:11:41.815Z,1018.15
2017-11-15T00:12:07.939Z,1018.14
2017-11-15T00:12:34.057Z,1018.14
2017-11-15T00:13:00.179Z,1018.17
2017-11-15T00:13:26.302Z,1018.17
2017-11-15T00:13:52.425Z,1018.22
2017-11-15T00:14:18.537Z,1018.21
2017-11-15T00:14:44.658Z,1018.2
2017-11-15T00:15:10.806Z,1018.19
2017-11-15T00:15:36.937Z,1018.21
2017-11-15T00:16:03.052Z,1018.21
2017-11-15T00:16:29.214Z,1018.23
2017-11-15T00:16:55.313Z,1018.25
2017-11-15T00:17:21.442Z,1018.23
2017-11-15T00:17:47.574Z,1018.26
2017-11-15T00:18:13.694Z,1018.27
2017-11-15T00:18:39.815Z,1018.27
2017-11-15T00:19:05.933Z,1018.24
2017-11-15T00:19:32.065Z,1018.26
2017-11-15T00:19:58.187Z,1018.24
2017-11-15T00:20:24.302Z,1018.24
2017-11-15T00:20:50.427Z,1018.28
2017-11-15T00:21:16.545Z,1018.3
2017-11-15T00:21:42.674Z,1018.31
2017-11-15T00:22:08.808Z,1018.33
2017-11-15T00:22:34.929Z,1018.27
2017-11-15T00:23:01.053Z,1018.28
2017-11-15T00:23:27.181Z,1018.28
2017-11-15T00:23:53.319Z,1018.34
2017-11-15T00:24:19.446Z,1018.3
2017-11-15T00:24:45.566Z,1018.32
2017-11-15T00:25:11.682Z,1018.33
2017-11-15T00:25:37.804Z,1018.3
2017-11-15T00:26:03.931Z,1018.35
2017-11-15T00:26:30.047Z,1018.3
2017-11-15T00:26:56.197Z,1018.3
2017-11-15T00:27:22.318Z,1018.31
2017-11-15T00:27:48.436Z,1018.33
2017-11-15T00:28:14.559Z,1018.33
2017-11-15T00:28:40.691Z,1018.32
2017-11-15T00:29:06.841Z,1018.31
2017-11-15T00:29:32.958Z,1018.38
2017-11-15T00:29:59.083Z,1018.34
2017-11-15T00:30:25.206Z,1018.39
2017-11-15T00:30:51.341Z,1018.33
2017-11-15T00:31:17.468Z,1018.42
2017-11-15T00:31:43.590Z,1018.34
2017-11-15T00:32:09.750Z,1018.31
2017-11-15T00:32:35.865Z,1018.37
2017-11-15T00:33:01.984Z,1018.32
2017-11-15T00:33:28.108Z,1018.36
2017-11-15T00:33:54.234Z,1018.31
2017-11-15T00:34:20.374Z,1018.3
2017-11-15T00:34:46.501Z,1018.33
2017-11-15T00:35:12.617Z,1018.33
2017-11-15T00:35:38.739Z,1018.26
2017-11-15T00:36:04.868Z,1018.31
2017-11-15T00:36:30.981Z,1018.3
2017-11-15T00:36:57.105Z,1018.36
2017-11-15T00:37:23.225Z,1018.36
2017-11-15T00:37:49.346Z,1018.31
2017-11-15T00:38:15.464Z,1018.31
2017-11-15T00:38:41.609Z,1018.34
2017-11-15T00:39:07.739Z,1018.36
2017-11-15T00:39:33.878Z,1018.31
2017-11-15T00:40:00.008Z,1018.32
2017-11-15T00:40:26.154Z,1018.32
2017-11-15T00:40:52.273Z,1018.33
2017-11-15T00:41:18.395Z,1018.32
2017-11-15T00:41:44.511Z,1018.32
2017-11-15T00:42:10.641Z,1018.33
2017-11-15T00:42:36.782Z,1018.35
2017-11-15T00:43:02.904Z,1018.33
2017-11-15T00:43:29.028Z,1018.37
2017-11-15T00:43:55.152Z,1018.37
2017-11-15T00:44:21.267Z,1018.37
2017-11-15T00:44:47.381Z,1018.38
2017-11-15T00:45:13.509Z,1018.35
2017-11-15T00:45:39.626Z,1018.36
2017-11-15T00:46:05.752Z,1018.39
2017-11-15T00:46:31.871Z,1018.38
2017-11-15T00:46:57.991Z,1018.38
2017-11-15T00:47:24.114Z,1018.4
2017-11-15T00:47:50.240Z,1018.39
2017-11-15T00:48:16.379Z,1018.39
2017-11-15T00:48:42.517Z,1018.32
2017-11-15T00:49:08.645Z,1018.36
2017-11-15T00:49:34.761Z,1018.39
2017-11-15T00:50:00.882Z,1018.38
2017-11-15T00:50:27.008Z,1018.4
2017-11-15T00:50:53.146Z,1018.41
2017-11-15T00:51:19.270Z,1018.38
2017-11-15T00:51:45.391Z,1018.36
2017-11-15T00:52:11.514Z,1018.38
2017-11-15T00:52:37.641Z,1018.37
2017-11-15T00:53:03.757Z,1018.34
2017-11-15T00:53:29.874Z,1018.37
2017-11-15T00:53:55.993Z,1018.36
2017-11-15T00:54:22.120Z,1018.4
2017-11-15T00:54:48.237Z,1018.36
2017-11-15T00:55:14.367Z,1018.33
2017-11-15T00:55:40.479Z,1018.35
2017-11-15T00:56:06.605Z,1018.37
2017-11-15T00:56:32.727Z,1018.34
2017-11-15T00:56:58.840Z,1018.29
2017-11-15T00:57:24.971Z,1018.3
2017-11-15T00:57:51.084Z,1018.37
2017-11-15T00:58:17.201Z,1018.34
2017-11-15T00:58:43.325Z,1018.37
2017-11-15T00:59:09.486Z,1018.37
2017-11-15T00:59:35.612Z,1018.37
2017-11-15T01:00:01.752Z,1018.35
2017-11-15T01:00:27.878Z,1018.34
2017-11-15T01:00:53.993Z,1018.36
2017-11-15T01:01:20.124Z,1018.35
2017-11-15T01:01:46.243Z,1018.38
2017-11-15T01:02:12.382Z,1018.41
2017-11-15T01:02:38.482Z,1018.38
2017-11-15T01:03:04.623Z,1018.38
2017-11-15T01:03:30.764Z,1018.44
2017-11-15T01:03:56.878Z,1018.4
2017-11-15T01:04:23.007Z,1018.41
2017-11-15T01:04:49.130Z,1018.38
2017-11-15T01:05:15.252Z,1018.39
2017-11-15T01:05:41.368Z,1018.42
2017-11-15T01:06:07.486Z,1018.48
2017-11-15T01:06:33.632Z,1018.39
2017-11-15T01:06:59.756Z,1018.42
2017-11-15T01:07:25.880Z,1018.42
2017-11-15T01:07:51.999Z,1018.43
2017-11-15T01:08:18.123Z,1018.44
2017-11-15T01:08:44.246Z,1018.45
2017-11-15T01:09:10.365Z,1018.39
2017-11-15T01:09:36.505Z,1018.44
2017-11-15T01:10:02.654Z,1018.42
2017-11-15T01:10:28.774Z,1018.45
2017-11-15T01:10:54.896Z,1018.44
2017-11-15T01:11:21.013Z,1018.42
2017-11-15T01:11:47.136Z,1018.45
2017-11-15T01:12:13.263Z,1018.45
2017-11-15T01:12:39.383Z,1018.42
2017-11-15T01:13:07.049Z,1018.39
2017-11-15T01:13:33.195Z,1018.4
2017-11-15T01:13:59.336Z,1018.42
2017-11-15T01:14:25.482Z,1018.42
2017-11-15T01:14:51.635Z,1018.42
2017-11-15T01:15:17.774Z,1018.39
2017-11-15T01:15:43.923Z,1018.37
2017-11-15T01:16:10.065Z,1018.41
2017-11-15T01:16:36.209Z,1018.42
2017-11-15T01:17:02.350Z,1018.43
2017-11-15T01:17:28.503Z,1018.37
2017-11-15T01:17:54.642Z,1018.37
2017-11-15T01:18:20.784Z,1018.38
2017-11-15T01:18:46.936Z,1018.39
2017-11-15T01:19:13.084Z,1018.39
2017-11-15T01:19:39.224Z,1018.36
2017-11-15T01:20:05.370Z,1018.4
2017-11-15T01:20:31.514Z,1018.4
2017-11-15T01:20:57.659Z,1018.41
2017-11-15T01:21:23.832Z,1018.44
2017-11-15T01:21:50.011Z,1018.4
2017-11-15T01:22:16.157Z,1018.38
2017-11-15T01:22:42.301Z,1018.33
2017-11-15T01:23:08.444Z,1018.38
2017-11-15T01:23:34.589Z,1018.37
2017-11-15T01:24:00.762Z,1018.38
2017-11-15T01:24:26.904Z,1018.38
2017-11-15T01:24:53.053Z,1018.4
2017-11-15T01:25:19.200Z,1018.4
2017-11-15T01:25:45.348Z,1018.42
2017-11-15T01:26:11.483Z,1018.36
2017-11-15T01:26:37.636Z,1018.39
2017-11-15T01:27:03.784Z,1018.34
2017-11-15T01:27:29.933Z,1018.38
2017-11-15T01:27:56.076Z,1018.34
2017-11-15T01:28:22.214Z,1018.4
2017-11-15T01:28:48.355Z,1018.36
2017-11-15T01:29:14.524Z,1018.41
2017-11-15T01:29:40.687Z,1018.34
2017-11-15T01:30:06.839Z,1018.36
2017-11-15T01:30:32.996Z,1018.36
2017-11-15T01:30:59.128Z,1018.38
2017-11-15T01:31:25.301Z,1018.32
2017-11-15T01:31:51.442Z,1018.34
2017-11-15T01:32:17.587Z,1018.4
2017-11-15T01:32:43.736Z,1018.38
2017-11-15T01:33:09.904Z,1018.36
2017-11-15T01:33:36.050Z,1018.42
2017-11-15T01:34:02.219Z,1018.39
2017-11-15T01:34:28.335Z,1018.44
2017-11-15T01:34:54.516Z,1018.44
2017-11-15T01:35:20.657Z,1018.43
2017-11-15T01:35:46.806Z,1018.42
2017-11-15T01:36:12.947Z,1018.43
2017-11-15T01:36:39.093Z,1018.44
2017-11-15T01:37:05.232Z,1018.47
2017-11-15T01:37:31.372Z,1018.46
2017-11-15T01:37:57.523Z,1018.41
2017-11-15T01:38:23.663Z,1018.46
2017-11-15T01:38:49.811Z,1018.42
2017-11-15T01:39:15.960Z,1018.4
2017-11-15T01:39:42.099Z,1018.48
2017-11-15T01:40:08.246Z,1018.49
2017-11-15T01:40:34.386Z,1018.47
2017-11-15T01:41:00.564Z,1018.45
2017-11-15T01:41:26.700Z,1018.46
2017-11-15T01:41:52.875Z,1018.5
2017-11-15T01:42:19.018Z,1018.51
2017-11-15T01:42:45.168Z,1018.53
2017-11-15T01:43:11.304Z,1018.54
2017-11-15T01:43:37.444Z,1018.56
2017-11-15T01:44:03.592Z,1018.56
2017-11-15T01:44:29.732Z,1018.54
2017-11-15T01:44:55.881Z,1018.55
2017-11-15T01:45:22.023Z,1018.57
2017-11-15T01:45:48.173Z,1018.58
2017-11-15T01:46:14.313Z,1018.53
2017-11-15T01:46:40.467Z,1018.58
2017-11-15T01:47:06.600Z,1018.58
2017-11-15T01:47:32.783Z,1018.57
2017-11-15T01:47:58.956Z,1018.57
2017-11-15T01:48:25.106Z,1018.58
2017-11-15T01:48:51.235Z,1018.55
2017-11-15T01:49:17.384Z,1018.58
2017-11-15T01:49:43.526Z,1018.56
2017-11-15T01:50:09.700Z,1018.57
2017-11-15T01:50:35.841Z,1018.59
2017-11-15T01:51:01.995Z,1018.6
2017-11-15T01:51:28.137Z,1018.58
2017-11-15T01:51:54.281Z,1018.57
2017-11-15T01:52:20.430Z,1018.57
2017-11-15T01:52:46.574Z,1018.58
2017-11-15T01:53:12.718Z,1018.57
2017-11-15T01:53:38.864Z,1018.55
2017-11-15T01:54:05.068Z,1018.58
2017-11-15T01:54:31.207Z,1018.56
2017-11-15T01:54:57.377Z,1018.56
2017-11-15T01:55:23.525Z,1018.57
2017-11-15T01:55:49.667Z,1018.57
2017-11-15T01:56:15.814Z,1018.57
2017-11-15T01:56:41.959Z,1018.59
2017-11-15T01:57:08.104Z,1018.53
2017-11-15T01:57:34.258Z,1018.57
2017-11-15T01:58:00.419Z,1018.58
2017-11-15T01:58:26.557Z,1018.54
2017-11-15T01:58:52.710Z,1018.57
2017-11-15T01:59:18.886Z,1018.56
2017-11-15T01:59:45.053Z,1018.61
2017-11-15T02:00:11.200Z,1018.57
2017-11-15T02:00:37.368Z,1018.51
2017-11-15T02:01:03.509Z,1018.55
2017-11-15T02:01:29.662Z,1018.58
2017-11-15T02:01:55.800Z,1018.52
2017-11-15T02:02:21.955Z,1018.54
2017-11-15T02:02:48.100Z,1018.55
2017-11-15T02:03:14.246Z,1018.52
2017-11-15T02:03:40.385Z,1018.53
2017-11-15T02:04:06.549Z,1018.52
2017-11-15T02:04:32.673Z,1018.51
2017-11-15T02:04:58.824Z,1018.48
2017-11-15T02:05:24.962Z,1018.5
2017-11-15T02:05:51.106Z,1018.5
2017-11-15T02:06:17.255Z,1018.48
2017-11-15T02:06:43.404Z,1018.51
2017-11-15T02:07:09.578Z,1018.46
2017-11-15T02:07:35.752Z,1018.49
2017-11-15T02:08:01.901Z,1018.44
2017-11-15T02:08:28.037Z,1018.46
2017-11-15T02:08:54.182Z,1018.45
2017-11-15T02:09:20.323Z,1018.48
2017-11-15T02:09:46.470Z,1018.45
2017-11-15T02:10:12.617Z,1018.47
2017-11-15T02:10:38.755Z,1018.48
2017-11-15T02:11:04.899Z,1018.44
2017-11-15T02:11:31.050Z,1018.44
2017-11-15T02:11:57.193Z,1018.43
2017-11-15T02:12:23.343Z,1018.41
2017-11-15T02:12:49.489Z,1018.45
2017-11-15T02:13:15.627Z,1018.43
2017-11-15T02:13:41.773Z,1018.4
2017-11-15T02:14:07.944Z,1018.42
2017-11-15T02:14:34.141Z,1018.42
2017-11-15T02:15:00.284Z,1018.38
2017-11-15T02:15:26.437Z,1018.42
2017-11-15T02:15:52.579Z,1018.43
2017-11-15T02:16:18.748Z,1018.38
2017-11-15T02:16:44.896Z,1018.44
2017-11-15T02:17:11.039Z,1018.37
2017-11-15T02:17:37.180Z,1018.37
2017-11-15T02:18:03.328Z,1018.38
2017-11-15T02:18:29.479Z,1018.42
2017-11-15T02:18:55.618Z,1018.46
2017-11-15T02:19:21.764Z,1018.4
2017-11-15T02:19:47.908Z,1018.41
2017-11-15T02:20:14.061Z,1018.43
2017-11-15T02:20:40.203Z,1018.4
2017-11-15T02:21:06.349Z,1018.43
2017-11-15T02:21:32.491Z,1018.44
2017-11-15T02:21:58.636Z,1018.43
2017-11-15T02:22:24.778Z,1018.43
2017-11-15T02:22:50.933Z,1018.46
2017-11-15T02:23:17.093Z,1018.44
2017-11-15T02:23:43.235Z,1018.43
2017-11-15T02:24:09.386Z,1018.44
2017-11-15T02:24:35.526Z,1018.44
2017-11-15T02:25:01.675Z,1018.44
2017-11-15T02:25:27.819Z,1018.42
2017-11-15T02:25:53.975Z,1018.38
2017-11-15T02:26:20.124Z,1018.38
2017-11-15T02:26:46.262Z,1018.38
2017-11-15T02:27:12.412Z,1018.37
2017-11-15T02:27:38.576Z,1018.42
2017-11-15T02:28:04.703Z,1018.4
2017-11-15T02:28:30.847Z,1018.4
2017-11-15T02:28:57.023Z,1018.36
2017-11-15T02:29:23.172Z,1018.38
2017-11-15T02:29:49.363Z,1018.39
2017-11-15T02:30:15.501Z,1018.38
2017-11-15T02:30:41.673Z,1018.35
2017-11-15T02:31:07.815Z,1018.4
2017-11-15T02:31:33.965Z,1018.38
2017-11-15T02:32:00.107Z,1018.36
2017-11-15T02:32:26.262Z,1018.36
2017-11-15T02:32:52.393Z,1018.37
2017-11-15T02:33:18.541Z,1018.36
2017-11-15T02:33:44.686Z,1018.38
2017-11-15T02:34:10.861Z,1018.38
2017-11-15T02:34:37.006Z,1018.36
2017-11-15T02:35:03.156Z,1018.32
2017-11-15T02:35:29.324Z,1018.36
2017-11-15T02:35:55.465Z,1018.36
2017-11-15T02:36:21.619Z,1018.33
2017-11-15T02:36:47.805Z,1018.39
2017-11-15T02:37:13.959Z,1018.36
2017-11-15T02:37:40.100Z,1018.35
2017-11-15T02:38:06.245Z,1018.37
2017-11-15T02:38:32.406Z,1018.34
2017-11-15T02:38:58.544Z,1018.38
2017-11-15T02:39:24.684Z,1018.36
2017-11-15T02:39:50.836Z,1018.38
2017-11-15T02:40:16.977Z,1018.4
2017-11-15T02:40:43.116Z,1018.36
2017-11-15T02:41:09.263Z,1018.35
2017-11-15T02:41:35.409Z,1018.33
2017-11-15T02:42:01.551Z,1018.37
2017-11-15T02:42:27.726Z,1018.38
2017-11-15T02:42:53.867Z,1018.34
2017-11-15T02:43:20.010Z,1018.37
2017-11-15T02:43:46.165Z,1018.31
2017-11-15T02:44:12.304Z,1018.36
2017-11-15T02:44:38.462Z,1018.38
2017-11-15T02:45:04.601Z,1018.28
2017-11-15T02:45:30.744Z,1018.3
2017-11-15T02:45:56.892Z,1018.28
2017-11-15T02:46:23.078Z,1018.29
2017-11-15T02:46:49.240Z,1018.26
2017-11-15T02:47:15.400Z,1018.28
2017-11-15T02:47:41.550Z,1018.23
2017-11-15T02:48:07.692Z,1018.29
2017-11-15T02:48:33.840Z,1018.27
2017-11-15T02:48:59.991Z,1018.23
2017-11-15T02:49:26.132Z,1018.25
2017-11-15T02:49:52.301Z,1018.23
2017-11-15T02:50:18.447Z,1018.21
2017-11-15T02:50:44.594Z,1018.24
2017-11-15T02:51:10.733Z,1018.27
2017-11-15T02:51:36.886Z,1018.28
2017-11-15T02:52:03.027Z,1018.23
2017-11-15T02:52:29.207Z,1018.26
2017-11-15T02:52:55.340Z,1018.28
2017-11-15T02:53:21.485Z,1018.27
2017-11-15T02:53:47.634Z,1018.24
2017-11-15T02:54:13.774Z,1018.27
2017-11-15T02:54:39.935Z,1018.24
2017-11-15T02:55:06.101Z,1018.22
2017-11-15T02:55:32.247Z,1018.26
2017-11-15T02:55:58.391Z,1018.25
2017-11-15T02:56:24.532Z,1018.16
2017-11-15T02:56:50.675Z,1018.22
2017-11-15T02:57:16.826Z,1018.16
2017-11-15T02:57:42.970Z,1018.17
2017-11-15T02:58:09.112Z,1018.15
2017-11-15T02:58:35.271Z,1018.18
2017-11-15T02:59:01.404Z,1018.21
2017-11-15T02:59:27.543Z,1018.16
2017-11-15T02:59:53.696Z,1018.16
2017-11-15T03:00:19.854Z,1018.15
2017-11-15T03:00:45.988Z,1018.2
2017-11-15T03:01:12.161Z,1018.21
2017-11-15T03:01:38.296Z,1018.17
2017-11-15T03:02:04.444Z,1018.16
2017-11-15T03:02:30.588Z,1018.15
2017-11-15T03:02:56.768Z,1018.19
2017-11-15T03:03:22.909Z,1018.14
2017-11-15T03:03:49.060Z,1018.12
2017-11-15T03:04:15.214Z,1018.17
2017-11-15T03:04:41.344Z,1018.14
2017-11-15T03:05:07.493Z,1018.14
2017-11-15T03:05:33.639Z,1018.14
2017-11-15T03:05:59.773Z,1018.13
2017-11-15T03:06:25.925Z,1018.08
2017-11-15T03:06:52.069Z,1018.13
2017-11-15T03:07:18.219Z,1018.14
2017-11-15T03:07:44.357Z,1018.11
2017-11-15T03:08:10.501Z,1018.15
2017-11-15T03:08:36.651Z,1018.16
2017-11-15T03:09:02.799Z,1018.14
2017-11-15T03:09:28.967Z,1018.14
2017-11-15T03:09:55.141Z,1018.13
2017-11-15T03:10:21.283Z,1018.05
2017-11-15T03:10:47.427Z,1018.1
2017-11-15T03:11:13.574Z,1018.11
2017-11-15T03:11:39.721Z,1018.09
2017-11-15T03:12:05.861Z,1018.11
2017-11-15T03:12:32.012Z,1018.11
2017-11-15T03:12:58.153Z,1018.11
2017-11-15T03:13:24.294Z,1018.12
2017-11-15T03:13:50.442Z,1018.14
2017-11-15T03:14:16.591Z,1018.09
2017-11-15T03:14:42.739Z,1018.14
2017-11-15T03:15:08.882Z,1018.09
2017-11-15T03:15:35.047Z,1018.11
2017-11-15T03:16:01.200Z,1018.15
2017-11-15T03:16:27.342Z,1018.12
2017-11-15T03:16:53.484Z,1018.17
2017-11-15T03:17:19.629Z,1018.1
2017-11-15T03:17:45.796Z,1018.11
2017-11-15T03:18:11.940Z,1018.16
2017-11-15T03:18:38.086Z,1018.1
2017-11-15T03:19:04.227Z,1018.13
2017-11-15T03:19:30.371Z,1018.15
2017-11-15T03:19:56.521Z,1018.14
2017-11-15T03:20:22.660Z,1018.14
2017-11-15T03:20:48.807Z,1018.12
2017-11-15T03:21:14.961Z,1018.11
2017-11-15T03:21:41.099Z,1018.14
2017-11-15T03:22:07.241Z,1018.12
2017-11-15T03:22:33.390Z,1018.12
2017-11-15T03:22:59.534Z,1018.11
2017-11-15T03:23:25.678Z,1018.13
2017-11-15T03:23:51.829Z,1018.13
2017-11-15T03:24:17.964Z,1018.14
2017-11-15T03:24:44.108Z,1018.15
2017-11-15T03:25:10.258Z,1018.13
2017-11-15T03:25:36.400Z,1018.15
2017-11-15T03:26:02.547Z,1018.11
2017-11-15T03:26:28.720Z,1018.1
2017-11-15T03:26:54.854Z,1018.06
2017-11-15T03:27:21.008Z,1018.13
2017-11-15T03:27:47.175Z,1018.11
2017-11-15T03:28:13.324Z,1018.07
2017-11-15T03:28:39.466Z,1018.12
2017-11-15T03:29:05.609Z,1018.08
2017-11-15T03:29:31.757Z,1018.12
2017-11-15T03:29:57.910Z,1018.07
2017-11-15T03:30:24.059Z,1018.08
2017-11-15T03:30:50.221Z,1018.09
2017-11-15T03:31:16.365Z,1018.07
2017-11-15T03:31:42.510Z,1018.01
2017-11-15T03:32:08.651Z,1018.03
2017-11-15T03:32:34.800Z,1018.07
2017-11-15T03:33:00.940Z,1018.03
2017-11-15T03:33:27.085Z,1018.02
2017-11-15T03:33:53.234Z,1018.04
2017-11-15T03:34:19.379Z,1018.05
2017-11-15T03:34:45.546Z,1018.02
2017-11-15T03:35:11.699Z,1018.04
2017-11-15T03:35:37.837Z,1018.06
2017-11-15T03:36:03.983Z,1018.05
2017-11-15T03:36:30.126Z,1018.08
2017-11-15T03:36:56.275Z,1018.07
2017-11-15T03:37:22.421Z,1018.05
2017-11-15T03:37:48.568Z,1018.09
2017-11-15T03:38:14.713Z,1018.07
2017-11-15T03:38:40.879Z,1018.03
2017-11-15T03:39:07.029Z,1018.08
2017-11-15T03:39:33.176Z,1018.06
2017-11-15T03:39:59.317Z,1018.05
2017-11-15T03:40:25.459Z,1018.05
2017-11-15T03:40:51.639Z,1018.07
2017-11-15T03:41:17.780Z,1018.06
2017-11-15T03:41:43.947Z,1018.12
2017-11-15T03:42:10.099Z,1018.06
2017-11-15T03:42:36.236Z,1018.03
2017-11-15T03:43:02.387Z,1018.11
2017-11-15T03:43:28.526Z,1018.06
2017-11-15T03:43:54.674Z,1018.05
2017-11-15T03:44:20.825Z,1018.08
2017-11-15T03:44:46.965Z,1018.06
2017-11-15T03:45:13.105Z,1018.05
2017-11-15T03:45:39.258Z,1018.08
2017-11-15T03:46:05.397Z,1018.07
2017-11-15T03:46:31.546Z,1018.11
2017-11-15T03:46:57.709Z,1018.09
2017-11-15T03:47:23.861Z,1018.08
2017-11-15T03:47:49.998Z,1018.07
2017-11-15T03:48:16.173Z,1018.06
2017-11-15T03:48:42.314Z,1018.11
2017-11-15T03:49:08.462Z,1018.03
2017-11-15T03:49:34.601Z,1018.11
2017-11-15T03:50:00.743Z,1018.12
2017-11-15T03:50:26.896Z,1018.11
2017-11-15T03:50:53.038Z,1018.06
2017-11-15T03:51:19.213Z,1018.12
2017-11-15T03:51:45.334Z,1018.1
2017-11-15T03:52:11.474Z,1018.1
2017-11-15T03:52:37.631Z,1018.16
2017-11-15T03:53:03.769Z,1018.1
2017-11-15T03:53:29.919Z,1018.15
2017-11-15T03:53:56.066Z,1018.12
2017-11-15T03:54:22.218Z,1018.1
2017-11-15T03:54:48.386Z,1018.18
2017-11-15T03:55:14.539Z,1018.18
2017-11-15T03:55:40.675Z,1018.19
2017-11-15T03:56:06.859Z,1018.23
2017-11-15T03:56:32.993Z,1018.17
2017-11-15T03:56:59.133Z,1018.17
2017-11-15T03:57:25.275Z,1018.2
2017-11-15T03:57:51.419Z,1018.18
2017-11-15T03:58:17.571Z,1018.21
2017-11-15T03:58:43.713Z,1018.18
2017-11-15T03:59:09.858Z,1018.15
2017-11-15T03:59:36.026Z,1018.17
2017-11-15T04:00:02.177Z,1018.18
2017-11-15T04:00:28.327Z,1018.19
2017-11-15T04:00:54.486Z,1018.17
2017-11-15T04:01:20.630Z,1018.13
2017-11-15T04:01:46.781Z,1018.24
2017-11-15T04:02:12.925Z,1018.22
2017-11-15T04:02:39.073Z,1018.16
2017-11-15T04:03:05.214Z,1018.13
2017-11-15T04:03:31.367Z,1018.17
2017-11-15T04:03:57.510Z,1018.15
2017-11-15T04:04:23.657Z,1018.17
2017-11-15T04:04:49.795Z,1018.09
2017-11-15T04:05:15.944Z,1018.18
2017-11-15T04:05:42.096Z,1018.18
2017-11-15T04:06:08.238Z,1018.14
2017-11-15T04:06:34.389Z,1018.17
2017-11-15T04:07:00.537Z,1018.15
2017-11-15T04:07:26.679Z,1018.16
2017-11-15T04:07:52.828Z,1018.25
2017-11-15T04:08:18.972Z,1018.26
2017-11-15T04:08:45.118Z,1018.17
2017-11-15T04:09:11.262Z,1018.19
2017-11-15T04:09:37.405Z,1018.14
2017-11-15T04:10:03.549Z,1018.16
2017-11-15T04:10:29.686Z,1018.18
2017-11-15T04:10:55.861Z,1018.16
2017-11-15T04:11:22.002Z,1018.18
2017-11-15T04:11:48.151Z,1018.19
2017-11-15T04:12:14.300Z,1018.16
2017-11-15T04:12:40.473Z,1018.14
2017-11-15T04:13:06.617Z,1018.16
2017-11-15T04:13:32.771Z,1018.18
2017-11-15T04:13:58.905Z,1018.25
2017-11-15T04:14:25.046Z,1018.25
2017-11-15T04:14:51.197Z,1018.17
2017-11-15T04:15:17.347Z,1018.14
2017-11-15T04:15:43.516Z,1018.16
2017-11-15T04:16:09.647Z,1018.15
2017-11-15T04:16:35.798Z,1018.18
2017-11-15T04:17:01.941Z,1018.21
2017-11-15T04:17:28.091Z,1018.16
2017-11-15T04:17:54.229Z,1018.14
2017-11-15T04:18:20.380Z,1018.16
2017-11-15T04:18:46.522Z,1018.18
2017-11-15T04:19:12.669Z,1018.18
2017-11-15T04:19:38.821Z,1018.18
2017-11-15T04:20:04.958Z,1018.18
2017-11-15T04:20:31.101Z,1018.17
2017-11-15T04:20:57.278Z,1018.16
2017-11-15T04:21:23.424Z,1018.17
2017-11-15T04:21:49.566Z,1018.18
2017-11-15T04:22:15.713Z,1018.19
2017-11-15T04:22:41.859Z,1018.19
2017-11-15T04:23:08.004Z,1018.17
2017-11-15T04:23:34.143Z,1018.19
2017-11-15T04:24:00.283Z,1018.18
2017-11-15T04:24:26.435Z,1018.16
2017-11-15T04:24:52.575Z,1018.2
2017-11-15T04:25:18.721Z,1018.12
2017-11-15T04:25:44.866Z,1018.14
2017-11-15T04:26:11.009Z,1018.12
2017-11-15T04:26:37.162Z,1018.16
2017-11-15T04:27:03.298Z,1018.13
2017-11-15T04:27:29.442Z,1018.17
2017-11-15T04:27:55.599Z,1018.16
2017-11-15T04:28:21.737Z,1018.14
2017-11-15T04:28:47.880Z,1018.17
2017-11-15T04:29:14.029Z,1018.23
2017-11-15T04:29:40.170Z,1018.2
2017-11-15T04:30:06.313Z,1018.23
2017-11-15T04:30:32.458Z,1018.21
2017-11-15T04:30:58.607Z,1018.23
2017-11-15T04:31:24.777Z,1018.19
2017-11-15T04:31:50.926Z,1018.21
2017-11-15T04:32:17.064Z,1018.21
2017-11-15T04:32:43.214Z,1018.21
2017-11-15T04:33:09.357Z,1018.15
2017-11-15T04:33:35.494Z,1018.18
2017-11-15T04:34:01.643Z,1018.17
2017-11-15T04:34:27.787Z,1018.2
2017-11-15T04:34:53.941Z,1018.22
2017-11-15T04:35:20.076Z,1018.21
2017-11-15T04:35:46.221Z,1018.23
2017-11-15T04:36:12.369Z,1018.22
2017-11-15T04:36:38.511Z,1018.29
2017-11-15T04:37:04.666Z,1018.23
2017-11-15T04:37:30.809Z,1018.26
2017-11-15T04:37:56.956Z,1018.23
2017-11-15T04:38:23.104Z,1018.26
2017-11-15T04:38:49.246Z,1018.3
2017-11-15T04:39:15.387Z,1018.29
2017-11-15T04:39:41.543Z,1018.28
2017-11-15T04:40:07.700Z,1018.24
2017-11-15T04:40:33.847Z,1018.27
2017-11-15T04:40:59.988Z,1018.27
2017-11-15T04:41:26.127Z,1018.26
2017-11-15T04:41:52.281Z,1018.3
2017-11-15T04:42:18.428Z,1018.26
2017-11-15T04:42:44.597Z,1018.28
2017-11-15T04:43:10.739Z,1018.34
2017-11-15T04:43:36.888Z,1018.28
2017-11-15T04:44:03.022Z,1018.23
2017-11-15T04:44:29.175Z,1018.28
2017-11-15T04:44:55.312Z,1018.32
2017-11-15T04:45:21.463Z,1018.27
2017-11-15T04:45:47.614Z,1018.35
2017-11-15T04:46:13.755Z,1018.25
2017-11-15T04:46:39.903Z,1018.29
2017-11-15T04:47:06.077Z,1018.25
2017-11-15T04:47:32.219Z,1018.33
2017-11-15T04:47:58.361Z,1018.29
2017-11-15T04:48:24.502Z,1018.32
2017-11-15T04:48:50.651Z,1018.31
2017-11-15T04:49:16.800Z,1018.29
2017-11-15T04:49:42.964Z,1018.27
2017-11-15T04:50:09.112Z,1018.32
2017-11-15T04:50:35.260Z,1018.33
2017-11-15T04:51:01.401Z,1018.31
2017-11-15T04:51:27.552Z,1018.36
2017-11-15T04:51:53.697Z,1018.34
2017-11-15T04:52:19.844Z,1018.33
2017-11-15T04:52:45.991Z,1018.34
2017-11-15T04:53:12.132Z,1018.33
2017-11-15T04:53:38.288Z,1018.32
2017-11-15T04:54:04.451Z,1018.32
2017-11-15T04:54:30.592Z,1018.33
2017-11-15T04:54:56.742Z,1018.34
2017-11-15T04:55:22.883Z,1018.35
2017-11-15T04:55:49.050Z,1018.32
2017-11-15T04:56:15.224Z,1018.37
2017-11-15T04:56:41.393Z,1018.39
2017-11-15T04:57:07.537Z,1018.38
2017-11-15T04:57:33.690Z,1018.34
2017-11-15T04:57:59.833Z,1018.35
2017-11-15T04:58:25.983Z,1018.33
2017-11-15T04:58:52.128Z,1018.36
2017-11-15T04:59:18.270Z,1018.4
2017-11-15T04:59:44.423Z,1018.37
2017-11-15T05:00:10.562Z,1018.39
2017-11-15T05:00:36.722Z,1018.36
2017-11-15T05:01:02.856Z,1018.32
2017-11-15T05:01:28.993Z,1018.4
2017-11-15T05:01:55.139Z,1018.37
2017-11-15T05:02:21.278Z,1018.35
2017-11-15T05:02:47.431Z,1018.37
2017-11-15T05:03:13.581Z,1018.38
2017-11-15T05:03:39.752Z,1018.36
2017-11-15T05:04:05.920Z,1018.35
2017-11-15T05:04:32.072Z,1018.37
2017-11-15T05:04:58.216Z,1018.34
2017-11-15T05:05:24.358Z,1018.38
2017-11-15T05:05:50.507Z,1018.37
2017-11-15T05:06:16.647Z,1018.36
2017-11-15T05:06:42.801Z,1018.37
2017-11-15T05:07:08.944Z,1018.36
2017-11-15T05:07:35.083Z,1018.4
2017-11-15T05:08:01.238Z,1018.42
2017-11-15T05:08:27.388Z,1018.39
2017-11-15T05:08:53.530Z,1018.38
2017-11-15T05:09:19.674Z,1018.35
2017-11-15T05:09:45.849Z,1018.39
2017-11-15T05:10:12.004Z,1018.39
2017-11-15T05:10:38.135Z,1018.39
2017-11-15T05:11:04.313Z,1018.34
2017-11-15T05:11:30.452Z,1018.41
2017-11-15T05:11:56.598Z,1018.42
2017-11-15T05:12:22.735Z,1018.46
2017-11-15T05:12:48.888Z,1018.45
2017-11-15T05:13:15.056Z,1018.44
2017-11-15T05:13:41.222Z,1018.46
2017-11-15T05:14:07.348Z,1018.47
2017-11-15T05:14:33.492Z,1018.45
2017-11-15T05:14:59.632Z,1018.45
2017-11-15T05:15:25.776Z,1018.43
2017-11-15T05:15:51.923Z,1018.45
2017-11-15T05:16:18.094Z,1018.45
2017-11-15T05:16:44.242Z,1018.49
2017-11-15T05:17:10.384Z,1018.46